Vremea mâine în Sângeorz Băi - Romania

Vrei sa afli care e starea vremii acum in Bistrita-Nasaud - Romania? Dorim sa iti furnizam starea vremii pentru Bistrita-Nasaud - Romania. Starea vremii Bistrita-Nasaud - Romania pentru astazi.

Vremea mâine în Sângeorz Băi

Temperatura minimă:
7.6 °C

Temperatura maximă:
21.4 °C

Mâine va fi: Senin
Precipitații: 0 %
Umiditate: 64%
Viteza maximă vânt mâine:
9.7 km/h

Evoluția vremii in Sângeorz Băi pe ore mâine

Ora: 05:00
Temperatura: °C
Sansa de precipitatii: %
Ora Descriere Temp Se simte Precipitatii Umiditate Vant
00:00Senin9.8°9.2°0%78%ENE 6.1 KM/H
01:00Senin9.3°8.7°0%78%ENE 5.8 KM/H
02:00Senin8.8°8.2°0%78%ENE 5.8 KM/H
03:00Senin8.5°7.7°0%78%ENE 6.1 KM/H
04:00Senin8.2°7.3°0%78%ENE 6.1 KM/H
05:00Senin7.9°7.1°0%79%ENE 5.8 KM/H
06:00Senin7.6°0%79%ENE 5 KM/H
07:00Senin8.6°8.3°0%77%E 4.7 KM/H
08:00Senin12°12°0%70%E 2.9 KM/H
09:00Senin14.4°14.4°0%64%SE 2.5 KM/H
10:00Senin16.3°16.3°0%60%S 5 KM/H
11:00Senin17.7°17.7°0%58%SSW 7.6 KM/H
12:00Senin19.2°19.2°0%54%SSW 9.4 KM/H
13:00Senin20.2°20.2°0%49%SSW 9.7 KM/H
14:00Senin20.9°20.9°0%46%SSW 9 KM/H
15:00Senin21.3°21.3°0%44%SSW 8.6 KM/H
16:00Senin21.4°21.4°0%44%SW 7.6 KM/H
17:00Senin21.4°21.4°0%45%SW 6.8 KM/H
18:00Senin21.1°21.1°0%46%SSW 5 KM/H
19:00Senin20.5°20.5°0%58%SSW 3.6 KM/H
20:00Senin16.5°16.5°0%61%SSE 2.9 KM/H
21:00Senin14.1°14.5°0%65%E 4.7 KM/H
22:00Senin13.1°12.8°0%68%ENE 6.8 KM/H
23:00Senin12°11.6°0%72%ENE 6.8 KM/H




tutorials